sensor_id;sensor_type;location;lat;lon;timestamp;P1;durP1;ratioP1;P2;durP2;ratioP2
38779;SDS011;29273;49.962;9.768;2023-04-06T00:00:16;3.55;;;2.90;;
38779;SDS011;29273;49.962;9.768;2023-04-06T00:02:41;3.75;;;2.97;;
38779;SDS011;29273;49.962;9.768;2023-04-06T00:05:07;3.55;;;2.88;;
38779;SDS011;29273;49.962;9.768;2023-04-06T00:07:33;3.72;;;2.78;;
38779;SDS011;29273;49.962;9.768;2023-04-06T00:09:58;3.90;;;2.78;;
38779;SDS011;29273;49.962;9.768;2023-04-06T00:12:24;3.88;;;3.00;;
38779;SDS011;29273;49.962;9.768;2023-04-06T00:14:50;3.42;;;2.83;;
38779;SDS011;29273;49.962;9.768;2023-04-06T00:17:15;3.63;;;2.72;;
38779;SDS011;29273;49.962;9.768;2023-04-06T00:19:41;3.53;;;2.83;;
38779;SDS011;29273;49.962;9.768;2023-04-06T00:22:06;3.75;;;2.97;;
38779;SDS011;29273;49.962;9.768;2023-04-06T00:24:32;4.38;;;2.90;;
38779;SDS011;29273;49.962;9.768;2023-04-06T00:26:57;4.20;;;3.08;;
38779;SDS011;29273;49.962;9.768;2023-04-06T00:29:23;4.82;;;3.10;;
38779;SDS011;29273;49.962;9.768;2023-04-06T00:31:48;3.83;;;3.15;;
38779;SDS011;29273;49.962;9.768;2023-04-06T00:34:14;3.97;;;2.78;;
38779;SDS011;29273;49.962;9.768;2023-04-06T00:36:41;3.80;;;3.00;;
38779;SDS011;29273;49.962;9.768;2023-04-06T00:39:06;4.82;;;3.25;;
38779;SDS011;29273;49.962;9.768;2023-04-06T00:41:32;5.05;;;3.08;;
38779;SDS011;29273;49.962;9.768;2023-04-06T00:43:57;4.10;;;2.78;;
38779;SDS011;29273;49.962;9.768;2023-04-06T00:46:23;4.35;;;3.05;;
38779;SDS011;29273;49.962;9.768;2023-04-06T00:48:49;3.25;;;2.95;;
38779;SDS011;29273;49.962;9.768;2023-04-06T00:51:14;3.20;;;2.85;;
38779;SDS011;29273;49.962;9.768;2023-04-06T00:53:40;3.58;;;2.63;;
38779;SDS011;29273;49.962;9.768;2023-04-06T00:56:06;3.25;;;2.70;;
38779;SDS011;29273;49.962;9.768;2023-04-06T00:58:44;2.78;;;2.53;;
38779;SDS011;29273;49.962;9.768;2023-04-06T01:01:10;4.57;;;2.88;;
38779;SDS011;29273;49.962;9.768;2023-04-06T01:03:36;3.97;;;2.95;;
38779;SDS011;29273;49.962;9.768;2023-04-06T01:06:02;3.33;;;2.80;;
38779;SDS011;29273;49.962;9.768;2023-04-06T01:08:35;3.65;;;2.70;;
38779;SDS011;29273;49.962;9.768;2023-04-06T01:11:15;3.42;;;2.55;;
38779;SDS011;29273;49.962;9.768;2023-04-06T01:13:40;3.15;;;2.78;;
38779;SDS011;29273;49.962;9.768;2023-04-06T01:16:13;5.30;;;3.05;;
38779;SDS011;29273;49.962;9.768;2023-04-06T01:18:58;3.20;;;2.65;;
38779;SDS011;29273;49.962;9.768;2023-04-06T01:21:28;4.32;;;3.22;;
38779;SDS011;29273;49.962;9.768;2023-04-06T01:24:15;3.17;;;2.65;;
38779;SDS011;29273;49.962;9.768;2023-04-06T01:26:56;3.77;;;2.43;;
38779;SDS011;29273;49.962;9.768;2023-04-06T01:29:24;3.58;;;2.90;;
38779;SDS011;29273;49.962;9.768;2023-04-06T01:32:08;3.35;;;2.50;;
38779;SDS011;29273;49.962;9.768;2023-04-06T01:34:40;3.95;;;2.92;;
38779;SDS011;29273;49.962;9.768;2023-04-06T01:37:05;4.35;;;3.03;;
38779;SDS011;29273;49.962;9.768;2023-04-06T01:39:31;3.65;;;2.92;;
38779;SDS011;29273;49.962;9.768;2023-04-06T01:41:57;3.97;;;2.97;;
38779;SDS011;29273;49.962;9.768;2023-04-06T01:44:24;4.07;;;2.70;;
38779;SDS011;29273;49.962;9.768;2023-04-06T01:47:01;4.05;;;3.08;;
38779;SDS011;29273;49.962;9.768;2023-04-06T01:49:26;4.22;;;3.00;;
38779;SDS011;29273;49.962;9.768;2023-04-06T01:51:54;4.53;;;2.75;;
38779;SDS011;29273;49.962;9.768;2023-04-06T01:54:20;3.58;;;2.88;;
38779;SDS011;29273;49.962;9.768;2023-04-06T01:56:54;4.38;;;2.65;;
38779;SDS011;29273;49.962;9.768;2023-04-06T01:59:52;3.45;;;2.75;;
38779;SDS011;29273;49.962;9.768;2023-04-06T02:02:36;3.60;;;3.05;;
38779;SDS011;29273;49.962;9.768;2023-04-06T02:05:07;3.65;;;2.67;;
38779;SDS011;29273;49.962;9.768;2023-04-06T02:07:33;3.42;;;2.55;;
38779;SDS011;29273;49.962;9.768;2023-04-06T02:09:59;4.30;;;2.72;;
38779;SDS011;29273;49.962;9.768;2023-04-06T02:12:34;2.90;;;2.47;;
38779;SDS011;29273;49.962;9.768;2023-04-06T02:15:00;3.90;;;2.70;;
38779;SDS011;29273;49.962;9.768;2023-04-06T02:17:25;3.17;;;2.65;;
38779;SDS011;29273;49.962;9.768;2023-04-06T02:19:51;3.65;;;2.53;;
38779;SDS011;29273;49.962;9.768;2023-04-06T02:22:16;4.18;;;2.78;;
38779;SDS011;29273;49.962;9.768;2023-04-06T02:24:42;3.75;;;2.97;;
38779;SDS011;29273;49.962;9.768;2023-04-06T02:27:07;3.15;;;2.40;;
38779;SDS011;29273;49.962;9.768;2023-04-06T02:29:33;4.30;;;3.28;;
38779;SDS011;29273;49.962;9.768;2023-04-06T02:31:59;2.83;;;2.50;;
38779;SDS011;29273;49.962;9.768;2023-04-06T02:34:25;4.85;;;2.95;;
38779;SDS011;29273;49.962;9.768;2023-04-06T02:36:51;3.58;;;2.80;;
38779;SDS011;29273;49.962;9.768;2023-04-06T02:39:16;3.28;;;2.42;;
38779;SDS011;29273;49.962;9.768;2023-04-06T02:41:42;3.50;;;2.65;;
38779;SDS011;29273;49.962;9.768;2023-04-06T02:44:09;3.65;;;2.70;;
38779;SDS011;29273;49.962;9.768;2023-04-06T02:46:42;3.30;;;2.80;;
38779;SDS011;29273;49.962;9.768;2023-04-06T02:49:08;3.63;;;2.65;;
38779;SDS011;29273;49.962;9.768;2023-04-06T02:51:34;3.28;;;2.47;;
38779;SDS011;29273;49.962;9.768;2023-04-06T02:54:14;3.72;;;2.90;;
38779;SDS011;29273;49.962;9.768;2023-04-06T02:56:39;3.13;;;2.40;;
38779;SDS011;29273;49.962;9.768;2023-04-06T02:59:06;3.75;;;2.42;;
38779;SDS011;29273;49.962;9.768;2023-04-06T03:01:32;3.00;;;2.38;;
38779;SDS011;29273;49.962;9.768;2023-04-06T03:04:02;3.45;;;2.78;;
38779;SDS011;29273;49.962;9.768;2023-04-06T03:06:28;3.53;;;3.00;;
38779;SDS011;29273;49.962;9.768;2023-04-06T03:09:00;3.05;;;2.50;;
38779;SDS011;29273;49.962;9.768;2023-04-06T03:11:25;3.53;;;2.80;;
38779;SDS011;29273;49.962;9.768;2023-04-06T03:13:52;3.63;;;2.60;;
38779;SDS011;29273;49.962;9.768;2023-04-06T03:16:17;4.40;;;2.85;;
38779;SDS011;29273;49.962;9.768;2023-04-06T03:18:43;3.03;;;2.30;;
38779;SDS011;29273;49.962;9.768;2023-04-06T03:21:12;3.55;;;2.63;;
38779;SDS011;29273;49.962;9.768;2023-04-06T03:23:47;3.65;;;2.63;;
38779;SDS011;29273;49.962;9.768;2023-04-06T03:26:16;3.40;;;2.72;;
38779;SDS011;29273;49.962;9.768;2023-04-06T03:28:42;3.78;;;2.40;;
38779;SDS011;29273;49.962;9.768;2023-04-06T03:31:07;3.40;;;2.60;;
38779;SDS011;29273;49.962;9.768;2023-04-06T03:33:53;3.60;;;2.60;;
38779;SDS011;29273;49.962;9.768;2023-04-06T03:36:23;4.10;;;2.65;;
38779;SDS011;29273;49.962;9.768;2023-04-06T03:38:49;3.40;;;2.92;;
38779;SDS011;29273;49.962;9.768;2023-04-06T03:41:15;3.33;;;2.60;;
38779;SDS011;29273;49.962;9.768;2023-04-06T03:43:47;3.65;;;2.60;;
38779;SDS011;29273;49.962;9.768;2023-04-06T03:46:12;4.53;;;2.60;;
38779;SDS011;29273;49.962;9.768;2023-04-06T03:48:38;2.90;;;2.33;;
38779;SDS011;29273;49.962;9.768;2023-04-06T03:51:05;2.88;;;2.55;;
38779;SDS011;29273;49.962;9.768;2023-04-06T03:53:31;2.92;;;2.55;;
38779;SDS011;29273;49.962;9.768;2023-04-06T03:55:56;3.83;;;2.78;;
38779;SDS011;29273;49.962;9.768;2023-04-06T03:58:22;3.47;;;2.70;;
38779;SDS011;29273;49.962;9.768;2023-04-06T04:00:47;3.22;;;2.60;;
38779;SDS011;29273;49.962;9.768;2023-04-06T04:03:12;3.08;;;2.65;;
38779;SDS011;29273;49.962;9.768;2023-04-06T04:05:38;2.92;;;2.60;;
38779;SDS011;29273;49.962;9.768;2023-04-06T04:08:04;4.28;;;2.58;;
38779;SDS011;29273;49.962;9.768;2023-04-06T04:10:30;2.92;;;2.50;;
38779;SDS011;29273;49.962;9.768;2023-04-06T04:12:56;3.45;;;2.70;;
38779;SDS011;29273;49.962;9.768;2023-04-06T04:15:22;3.70;;;2.83;;
38779;SDS011;29273;49.962;9.768;2023-04-06T04:17:47;4.28;;;2.90;;
38779;SDS011;29273;49.962;9.768;2023-04-06T04:20:14;3.58;;;2.80;;
38779;SDS011;29273;49.962;9.768;2023-04-06T04:22:41;3.17;;;2.60;;
38779;SDS011;29273;49.962;9.768;2023-04-06T04:25:08;3.22;;;2.42;;
38779;SDS011;29273;49.962;9.768;2023-04-06T04:27:38;2.92;;;2.63;;
38779;SDS011;29273;49.962;9.768;2023-04-06T04:30:04;4.07;;;3.28;;
38779;SDS011;29273;49.962;9.768;2023-04-06T04:32:31;3.40;;;3.05;;
38779;SDS011;29273;49.962;9.768;2023-04-06T04:34:58;3.38;;;2.85;;
38779;SDS011;29273;49.962;9.768;2023-04-06T04:37:33;4.90;;;2.67;;
38779;SDS011;29273;49.962;9.768;2023-04-06T04:40:00;6.30;;;3.00;;
38779;SDS011;29273;49.962;9.768;2023-04-06T04:42:29;2.88;;;2.58;;
38779;SDS011;29273;49.962;9.768;2023-04-06T04:44:57;3.42;;;3.00;;
38779;SDS011;29273;49.962;9.768;2023-04-06T04:47:32;4.15;;;3.15;;
38779;SDS011;29273;49.962;9.768;2023-04-06T04:49:58;4.25;;;3.20;;
38779;SDS011;29273;49.962;9.768;2023-04-06T04:52:24;4.55;;;3.30;;
38779;SDS011;29273;49.962;9.768;2023-04-06T04:54:57;4.35;;;3.30;;
38779;SDS011;29273;49.962;9.768;2023-04-06T04:57:26;4.18;;;3.40;;
38779;SDS011;29273;49.962;9.768;2023-04-06T04:59:52;4.57;;;3.13;;
38779;SDS011;29273;49.962;9.768;2023-04-06T05:02:18;4.85;;;3.22;;
38779;SDS011;29273;49.962;9.768;2023-04-06T05:05:07;4.05;;;3.15;;
38779;SDS011;29273;49.962;9.768;2023-04-06T05:07:33;3.67;;;2.80;;
38779;SDS011;29273;49.962;9.768;2023-04-06T05:10:00;4.75;;;3.13;;
38779;SDS011;29273;49.962;9.768;2023-04-06T05:12:29;4.05;;;2.90;;
38779;SDS011;29273;49.962;9.768;2023-04-06T05:15:06;3.60;;;3.10;;
38779;SDS011;29273;49.962;9.768;2023-04-06T05:17:33;3.05;;;2.70;;
38779;SDS011;29273;49.962;9.768;2023-04-06T05:19:58;3.08;;;2.63;;
38779;SDS011;29273;49.962;9.768;2023-04-06T05:22:25;3.75;;;2.65;;
38779;SDS011;29273;49.962;9.768;2023-04-06T05:25:05;3.20;;;2.80;;
38779;SDS011;29273;49.962;9.768;2023-04-06T05:27:31;4.75;;;2.92;;
38779;SDS011;29273;49.962;9.768;2023-04-06T05:29:59;3.92;;;2.78;;
38779;SDS011;29273;49.962;9.768;2023-04-06T05:32:27;3.47;;;2.75;;
38779;SDS011;29273;49.962;9.768;2023-04-06T05:34:53;4.47;;;2.90;;
38779;SDS011;29273;49.962;9.768;2023-04-06T05:37:18;4.25;;;3.00;;
38779;SDS011;29273;49.962;9.768;2023-04-06T05:39:44;3.47;;;2.75;;
38779;SDS011;29273;49.962;9.768;2023-04-06T05:42:10;4.45;;;3.45;;
38779;SDS011;29273;49.962;9.768;2023-04-06T05:44:47;3.50;;;3.00;;
38779;SDS011;29273;49.962;9.768;2023-04-06T05:47:16;4.53;;;2.92;;
38779;SDS011;29273;49.962;9.768;2023-04-06T05:49:43;3.47;;;2.90;;
38779;SDS011;29273;49.962;9.768;2023-04-06T05:52:15;3.38;;;2.60;;
38779;SDS011;29273;49.962;9.768;2023-04-06T05:54:44;3.45;;;2.70;;
38779;SDS011;29273;49.962;9.768;2023-04-06T05:57:10;4.22;;;2.83;;
38779;SDS011;29273;49.962;9.768;2023-04-06T05:59:36;3.53;;;2.88;;
38779;SDS011;29273;49.962;9.768;2023-04-06T06:02:02;3.90;;;2.70;;
38779;SDS011;29273;49.962;9.768;2023-04-06T06:04:30;6.60;;;3.33;;
38779;SDS011;29273;49.962;9.768;2023-04-06T06:06:56;3.80;;;2.88;;
38779;SDS011;29273;49.962;9.768;2023-04-06T06:09:37;3.05;;;2.22;;
38779;SDS011;29273;49.962;9.768;2023-04-06T06:12:14;2.95;;;2.45;;
38779;SDS011;29273;49.962;9.768;2023-04-06T06:14:40;3.47;;;2.60;;
38779;SDS011;29273;49.962;9.768;2023-04-06T06:17:06;3.72;;;2.60;;
38779;SDS011;29273;49.962;9.768;2023-04-06T06:19:32;3.10;;;2.38;;
38779;SDS011;29273;49.962;9.768;2023-04-06T06:22:01;3.88;;;2.88;;
38779;SDS011;29273;49.962;9.768;2023-04-06T06:24:28;3.88;;;3.05;;
38779;SDS011;29273;49.962;9.768;2023-04-06T06:26:53;4.55;;;2.80;;
38779;SDS011;29273;49.962;9.768;2023-04-06T06:29:22;3.45;;;2.63;;
38779;SDS011;29273;49.962;9.768;2023-04-06T06:31:49;4.25;;;2.70;;
38779;SDS011;29273;49.962;9.768;2023-04-06T06:34:15;4.55;;;2.65;;
38779;SDS011;29273;49.962;9.768;2023-04-06T06:36:41;4.03;;;2.50;;
38779;SDS011;29273;49.962;9.768;2023-04-06T06:39:10;2.80;;;2.40;;
38779;SDS011;29273;49.962;9.768;2023-04-06T06:41:36;2.55;;;2.25;;
38779;SDS011;29273;49.962;9.768;2023-04-06T06:44:03;3.03;;;2.20;;
38779;SDS011;29273;49.962;9.768;2023-04-06T06:46:28;3.40;;;2.63;;
38779;SDS011;29273;49.962;9.768;2023-04-06T06:48:54;2.80;;;2.55;;
38779;SDS011;29273;49.962;9.768;2023-04-06T06:51:19;3.15;;;2.25;;
38779;SDS011;29273;49.962;9.768;2023-04-06T06:53:45;5.55;;;2.92;;
38779;SDS011;29273;49.962;9.768;2023-04-06T06:56:10;3.15;;;2.63;;
38779;SDS011;29273;49.962;9.768;2023-04-06T06:58:36;3.10;;;2.50;;
38779;SDS011;29273;49.962;9.768;2023-04-06T07:01:02;3.95;;;3.00;;
38779;SDS011;29273;49.962;9.768;2023-04-06T07:03:29;3.50;;;2.80;;
38779;SDS011;29273;49.962;9.768;2023-04-06T07:05:55;4.45;;;2.90;;
38779;SDS011;29273;49.962;9.768;2023-04-06T07:08:23;3.50;;;2.90;;
38779;SDS011;29273;49.962;9.768;2023-04-06T07:10:50;3.75;;;2.50;;
38779;SDS011;29273;49.962;9.768;2023-04-06T07:13:17;3.03;;;2.60;;
38779;SDS011;29273;49.962;9.768;2023-04-06T07:15:48;2.80;;;2.35;;
38779;SDS011;29273;49.962;9.768;2023-04-06T07:18:14;3.30;;;2.83;;
38779;SDS011;29273;49.962;9.768;2023-04-06T07:20:40;2.90;;;2.47;;
38779;SDS011;29273;49.962;9.768;2023-04-06T07:23:06;2.92;;;2.55;;
38779;SDS011;29273;49.962;9.768;2023-04-06T07:25:31;3.33;;;2.55;;
38779;SDS011;29273;49.962;9.768;2023-04-06T07:27:57;3.85;;;2.80;;
38779;SDS011;29273;49.962;9.768;2023-04-06T07:30:23;4.05;;;2.75;;
38779;SDS011;29273;49.962;9.768;2023-04-06T07:32:52;4.03;;;2.85;;
38779;SDS011;29273;49.962;9.768;2023-04-06T07:35:18;3.70;;;2.65;;
38779;SDS011;29273;49.962;9.768;2023-04-06T07:37:43;4.57;;;2.78;;
38779;SDS011;29273;49.962;9.768;2023-04-06T07:40:09;5.05;;;2.58;;
38779;SDS011;29273;49.962;9.768;2023-04-06T07:42:36;3.42;;;2.65;;
38779;SDS011;29273;49.962;9.768;2023-04-06T07:45:04;4.50;;;3.03;;
38779;SDS011;29273;49.962;9.768;2023-04-06T07:47:31;3.10;;;2.78;;
38779;SDS011;29273;49.962;9.768;2023-04-06T07:49:57;3.47;;;2.78;;
38779;SDS011;29273;49.962;9.768;2023-04-06T07:52:22;3.60;;;2.80;;
38779;SDS011;29273;49.962;9.768;2023-04-06T07:54:49;4.50;;;3.20;;
38779;SDS011;29273;49.962;9.768;2023-04-06T07:57:15;4.35;;;3.10;;
38779;SDS011;29273;49.962;9.768;2023-04-06T07:59:40;3.85;;;3.13;;
38779;SDS011;29273;49.962;9.768;2023-04-06T08:02:06;4.07;;;3.10;;
38779;SDS011;29273;49.962;9.768;2023-04-06T08:04:31;4.88;;;3.47;;
38779;SDS011;29273;49.962;9.768;2023-04-06T08:06:57;4.95;;;2.97;;
38779;SDS011;29273;49.962;9.768;2023-04-06T08:09:22;3.90;;;3.00;;
38779;SDS011;29273;49.962;9.768;2023-04-06T08:11:48;4.03;;;3.15;;
38779;SDS011;29273;49.962;9.768;2023-04-06T08:14:14;4.38;;;3.22;;
38779;SDS011;29273;49.962;9.768;2023-04-06T08:16:40;3.97;;;2.90;;
38779;SDS011;29273;49.962;9.768;2023-04-06T08:19:06;3.95;;;2.95;;
38779;SDS011;29273;49.962;9.768;2023-04-06T08:21:37;3.35;;;3.03;;
38779;SDS011;29273;49.962;9.768;2023-04-06T08:24:02;3.75;;;2.97;;
38779;SDS011;29273;49.962;9.768;2023-04-06T08:26:28;4.57;;;3.90;;
38779;SDS011;29273;49.962;9.768;2023-04-06T08:28:54;5.70;;;4.18;;
38779;SDS011;29273;49.962;9.768;2023-04-06T08:31:19;4.13;;;3.70;;
38779;SDS011;29273;49.962;9.768;2023-04-06T08:33:45;4.45;;;3.70;;
38779;SDS011;29273;49.962;9.768;2023-04-06T08:36:11;5.45;;;4.38;;
38779;SDS011;29273;49.962;9.768;2023-04-06T08:38:39;5.55;;;4.05;;
38779;SDS011;29273;49.962;9.768;2023-04-06T08:41:13;5.75;;;4.28;;
38779;SDS011;29273;49.962;9.768;2023-04-06T08:43:58;4.30;;;3.72;;
38779;SDS011;29273;49.962;9.768;2023-04-06T08:46:24;4.40;;;4.00;;
38779;SDS011;29273;49.962;9.768;2023-04-06T08:48:55;5.90;;;3.85;;
38779;SDS011;29273;49.962;9.768;2023-04-06T08:51:25;5.18;;;4.18;;
38779;SDS011;29273;49.962;9.768;2023-04-06T08:53:54;5.90;;;3.97;;
38779;SDS011;29273;49.962;9.768;2023-04-06T08:56:21;4.45;;;3.33;;
38779;SDS011;29273;49.962;9.768;2023-04-06T08:58:48;4.25;;;3.80;;
38779;SDS011;29273;49.962;9.768;2023-04-06T09:01:14;3.58;;;3.25;;
38779;SDS011;29273;49.962;9.768;2023-04-06T09:03:45;4.80;;;3.67;;
38779;SDS011;29273;49.962;9.768;2023-04-06T09:06:11;4.93;;;3.97;;
38779;SDS011;29273;49.962;9.768;2023-04-06T09:08:39;3.88;;;3.40;;
38779;SDS011;29273;49.962;9.768;2023-04-06T09:11:06;5.03;;;3.92;;
38779;SDS011;29273;49.962;9.768;2023-04-06T09:13:43;4.85;;;3.75;;
38779;SDS011;29273;49.962;9.768;2023-04-06T09:16:10;4.50;;;3.45;;
38779;SDS011;29273;49.962;9.768;2023-04-06T09:18:35;3.80;;;3.28;;
38779;SDS011;29273;49.962;9.768;2023-04-06T09:21:01;3.65;;;3.25;;
38779;SDS011;29273;49.962;9.768;2023-04-06T09:23:28;4.47;;;3.67;;
38779;SDS011;29273;49.962;9.768;2023-04-06T09:26:13;3.95;;;3.25;;
38779;SDS011;29273;49.962;9.768;2023-04-06T09:28:49;5.10;;;3.90;;
38779;SDS011;29273;49.962;9.768;2023-04-06T09:31:17;4.53;;;3.35;;
38779;SDS011;29273;49.962;9.768;2023-04-06T09:33:47;4.45;;;4.05;;
38779;SDS011;29273;49.962;9.768;2023-04-06T09:36:13;3.95;;;3.55;;
38779;SDS011;29273;49.962;9.768;2023-04-06T09:38:54;4.72;;;3.90;;
38779;SDS011;29273;49.962;9.768;2023-04-06T09:41:24;5.57;;;4.07;;
38779;SDS011;29273;49.962;9.768;2023-04-06T09:46:33;4.70;;;4.03;;
38779;SDS011;29273;49.962;9.768;2023-04-06T09:49:01;6.43;;;4.18;;
38779;SDS011;29273;49.962;9.768;2023-04-06T09:51:29;4.63;;;3.97;;
38779;SDS011;29273;49.962;9.768;2023-04-06T09:53:57;4.95;;;4.28;;
38779;SDS011;29273;49.962;9.768;2023-04-06T09:56:28;5.65;;;4.50;;
38779;SDS011;29273;49.962;9.768;2023-04-06T09:59:12;5.38;;;4.47;;
38779;SDS011;29273;49.962;9.768;2023-04-06T10:01:39;4.68;;;4.07;;
38779;SDS011;29273;49.962;9.768;2023-04-06T10:04:23;4.40;;;4.00;;
38779;SDS011;29273;49.962;9.768;2023-04-06T10:07:01;5.20;;;4.07;;
38779;SDS011;29273;49.962;9.768;2023-04-06T10:09:28;5.20;;;4.43;;
38779;SDS011;29273;49.962;9.768;2023-04-06T10:12:02;5.13;;;4.63;;
38779;SDS011;29273;49.962;9.768;2023-04-06T10:14:28;4.75;;;4.20;;
38779;SDS011;29273;49.962;9.768;2023-04-06T10:16:55;5.85;;;4.70;;
38779;SDS011;29273;49.962;9.768;2023-04-06T10:19:22;5.55;;;4.55;;
38779;SDS011;29273;49.962;9.768;2023-04-06T10:21:54;4.90;;;4.07;;
38779;SDS011;29273;49.962;9.768;2023-04-06T10:24:21;5.03;;;3.83;;
38779;SDS011;29273;49.962;9.768;2023-04-06T10:27:00;5.32;;;4.65;;
38779;SDS011;29273;49.962;9.768;2023-04-06T10:29:27;7.38;;;4.18;;
38779;SDS011;29273;49.962;9.768;2023-04-06T10:31:53;4.63;;;3.80;;
38779;SDS011;29273;49.962;9.768;2023-04-06T10:34:20;5.78;;;4.53;;
38779;SDS011;29273;49.962;9.768;2023-04-06T10:36:46;5.38;;;4.40;;
38779;SDS011;29273;49.962;9.768;2023-04-06T10:39:11;5.93;;;4.13;;
38779;SDS011;29273;49.962;9.768;2023-04-06T10:41:44;5.40;;;4.35;;
38779;SDS011;29273;49.962;9.768;2023-04-06T10:44:22;5.47;;;4.32;;
38779;SDS011;29273;49.962;9.768;2023-04-06T10:46:55;6.20;;;4.50;;
38779;SDS011;29273;49.962;9.768;2023-04-06T10:49:22;6.18;;;4.70;;
38779;SDS011;29273;49.962;9.768;2023-04-06T10:51:55;5.55;;;4.72;;
38779;SDS011;29273;49.962;9.768;2023-04-06T10:54:22;4.65;;;4.07;;
38779;SDS011;29273;49.962;9.768;2023-04-06T10:56:49;5.32;;;4.30;;
38779;SDS011;29273;49.962;9.768;2023-04-06T10:59:18;4.53;;;4.13;;
38779;SDS011;29273;49.962;9.768;2023-04-06T11:01:48;6.35;;;4.50;;
38779;SDS011;29273;49.962;9.768;2023-04-06T11:04:17;5.85;;;4.60;;
38779;SDS011;29273;49.962;9.768;2023-04-06T11:06:46;5.13;;;4.30;;
38779;SDS011;29273;49.962;9.768;2023-04-06T11:09:22;5.10;;;4.30;;
38779;SDS011;29273;49.962;9.768;2023-04-06T11:11:49;5.57;;;4.22;;
38779;SDS011;29273;49.962;9.768;2023-04-06T11:14:14;4.57;;;3.67;;
38779;SDS011;29273;49.962;9.768;2023-04-06T11:16:40;6.03;;;4.05;;
38779;SDS011;29273;49.962;9.768;2023-04-06T11:19:05;5.40;;;3.63;;
38779;SDS011;29273;49.962;9.768;2023-04-06T11:21:38;6.63;;;5.20;;
38779;SDS011;29273;49.962;9.768;2023-04-06T11:24:19;4.80;;;4.25;;
38779;SDS011;29273;49.962;9.768;2023-04-06T11:26:47;5.15;;;3.90;;
38779;SDS011;29273;49.962;9.768;2023-04-06T11:29:17;4.43;;;3.58;;
38779;SDS011;29273;49.962;9.768;2023-04-06T11:31:47;4.07;;;3.67;;
38779;SDS011;29273;49.962;9.768;2023-04-06T11:34:19;4.47;;;3.90;;
38779;SDS011;29273;49.962;9.768;2023-04-06T11:36:46;4.90;;;3.85;;
38779;SDS011;29273;49.962;9.768;2023-04-06T11:39:17;5.47;;;4.30;;
38779;SDS011;29273;49.962;9.768;2023-04-06T11:41:47;5.28;;;3.83;;
38779;SDS011;29273;49.962;9.768;2023-04-06T11:44:14;4.38;;;3.67;;
38779;SDS011;29273;49.962;9.768;2023-04-06T11:46:40;5.53;;;4.03;;
38779;SDS011;29273;49.962;9.768;2023-04-06T11:49:05;4.68;;;3.90;;
38779;SDS011;29273;49.962;9.768;2023-04-06T11:51:35;5.03;;;3.47;;
38779;SDS011;29273;49.962;9.768;2023-04-06T11:54:01;4.18;;;3.30;;
38779;SDS011;29273;49.962;9.768;2023-04-06T11:56:28;5.10;;;3.83;;
38779;SDS011;29273;49.962;9.768;2023-04-06T11:58:58;5.60;;;4.00;;
38779;SDS011;29273;49.962;9.768;2023-04-06T12:01:25;5.47;;;4.07;;
38779;SDS011;29273;49.962;9.768;2023-04-06T12:03:51;4.25;;;3.65;;
38779;SDS011;29273;49.962;9.768;2023-04-06T12:06:17;3.95;;;3.42;;
38779;SDS011;29273;49.962;9.768;2023-04-06T12:08:43;5.57;;;4.30;;
38779;SDS011;29273;49.962;9.768;2023-04-06T12:11:10;4.13;;;3.40;;
38779;SDS011;29273;49.962;9.768;2023-04-06T12:13:36;4.63;;;3.90;;
38779;SDS011;29273;49.962;9.768;2023-04-06T12:16:02;5.05;;;4.22;;
38779;SDS011;29273;49.962;9.768;2023-04-06T12:18:27;5.00;;;4.07;;
38779;SDS011;29273;49.962;9.768;2023-04-06T12:20:53;5.50;;;4.25;;
38779;SDS011;29273;49.962;9.768;2023-04-06T12:23:19;4.53;;;3.55;;
38779;SDS011;29273;49.962;9.768;2023-04-06T12:25:44;4.15;;;3.75;;
38779;SDS011;29273;49.962;9.768;2023-04-06T12:28:10;4.30;;;3.50;;
38779;SDS011;29273;49.962;9.768;2023-04-06T12:30:36;5.07;;;4.05;;
38779;SDS011;29273;49.962;9.768;2023-04-06T12:33:02;4.57;;;3.90;;
38779;SDS011;29273;49.962;9.768;2023-04-06T12:35:28;5.53;;;4.55;;
38779;SDS011;29273;49.962;9.768;2023-04-06T12:37:53;4.95;;;3.72;;
38779;SDS011;29273;49.962;9.768;2023-04-06T12:40:19;4.25;;;3.78;;
38779;SDS011;29273;49.962;9.768;2023-04-06T12:42:45;5.05;;;3.88;;
38779;SDS011;29273;49.962;9.768;2023-04-06T12:45:11;4.85;;;3.60;;
38779;SDS011;29273;49.962;9.768;2023-04-06T12:47:37;5.18;;;4.20;;
38779;SDS011;29273;49.962;9.768;2023-04-06T12:50:04;4.43;;;3.75;;
38779;SDS011;29273;49.962;9.768;2023-04-06T12:52:31;4.25;;;3.55;;
38779;SDS011;29273;49.962;9.768;2023-04-06T12:54:57;4.55;;;3.35;;
38779;SDS011;29273;49.962;9.768;2023-04-06T12:57:25;4.25;;;3.20;;
38779;SDS011;29273;49.962;9.768;2023-04-06T12:59:51;4.10;;;3.65;;
38779;SDS011;29273;49.962;9.768;2023-04-06T13:02:18;4.85;;;3.80;;
38779;SDS011;29273;49.962;9.768;2023-04-06T13:04:45;3.50;;;3.20;;
38779;SDS011;29273;49.962;9.768;2023-04-06T13:07:10;4.18;;;3.05;;
38779;SDS011;29273;49.962;9.768;2023-04-06T13:09:36;4.05;;;3.65;;
38779;SDS011;29273;49.962;9.768;2023-04-06T13:12:02;3.33;;;3.03;;
38779;SDS011;29273;49.962;9.768;2023-04-06T13:14:28;3.35;;;2.95;;
38779;SDS011;29273;49.962;9.768;2023-04-06T13:16:53;3.47;;;3.17;;
38779;SDS011;29273;49.962;9.768;2023-04-06T13:19:19;3.83;;;3.25;;
38779;SDS011;29273;49.962;9.768;2023-04-06T13:21:44;3.67;;;2.92;;
38779;SDS011;29273;49.962;9.768;2023-04-06T13:24:10;3.25;;;2.95;;
38779;SDS011;29273;49.962;9.768;2023-04-06T13:26:36;3.65;;;2.83;;
38779;SDS011;29273;49.962;9.768;2023-04-06T13:29:01;3.75;;;3.15;;
38779;SDS011;29273;49.962;9.768;2023-04-06T13:31:27;3.90;;;3.22;;
38779;SDS011;29273;49.962;9.768;2023-04-06T13:33:53;4.10;;;3.33;;
38779;SDS011;29273;49.962;9.768;2023-04-06T13:36:19;3.95;;;3.20;;
38779;SDS011;29273;49.962;9.768;2023-04-06T13:38:45;5.90;;;3.38;;
38779;SDS011;29273;49.962;9.768;2023-04-06T13:41:17;3.17;;;2.88;;
38779;SDS011;29273;49.962;9.768;2023-04-06T13:43:46;3.88;;;3.00;;
38779;SDS011;29273;49.962;9.768;2023-04-06T13:46:11;3.72;;;3.20;;
38779;SDS011;29273;49.962;9.768;2023-04-06T13:48:37;5.07;;;3.50;;
38779;SDS011;29273;49.962;9.768;2023-04-06T13:53:35;2.70;;;2.40;;
38779;SDS011;29273;49.962;9.768;2023-04-06T13:56:00;3.38;;;2.92;;
38779;SDS011;29273;49.962;9.768;2023-04-06T13:58:26;3.13;;;2.70;;
38779;SDS011;29273;49.962;9.768;2023-04-06T14:00:52;2.80;;;2.50;;
38779;SDS011;29273;49.962;9.768;2023-04-06T14:03:17;3.80;;;2.60;;
38779;SDS011;29273;49.962;9.768;2023-04-06T14:05:44;3.28;;;2.60;;
38779;SDS011;29273;49.962;9.768;2023-04-06T14:08:10;3.35;;;3.05;;
38779;SDS011;29273;49.962;9.768;2023-04-06T14:10:36;3.08;;;2.72;;
38779;SDS011;29273;49.962;9.768;2023-04-06T14:13:05;3.50;;;3.00;;
38779;SDS011;29273;49.962;9.768;2023-04-06T14:15:31;4.57;;;3.28;;
38779;SDS011;29273;49.962;9.768;2023-04-06T14:17:56;4.03;;;2.63;;
38779;SDS011;29273;49.962;9.768;2023-04-06T14:20:22;3.13;;;2.40;;
38779;SDS011;29273;49.962;9.768;2023-04-06T14:22:48;2.95;;;2.42;;
38779;SDS011;29273;49.962;9.768;2023-04-06T14:25:14;2.97;;;2.58;;
38779;SDS011;29273;49.962;9.768;2023-04-06T14:27:41;4.80;;;3.25;;
38779;SDS011;29273;49.962;9.768;2023-04-06T14:30:07;3.13;;;2.65;;
38779;SDS011;29273;49.962;9.768;2023-04-06T14:32:33;3.55;;;3.20;;
38779;SDS011;29273;49.962;9.768;2023-04-06T14:34:59;3.90;;;3.30;;
38779;SDS011;29273;49.962;9.768;2023-04-06T14:37:25;2.75;;;2.47;;
38779;SDS011;29273;49.962;9.768;2023-04-06T14:39:51;2.83;;;2.53;;
38779;SDS011;29273;49.962;9.768;2023-04-06T14:42:16;3.78;;;2.90;;
38779;SDS011;29273;49.962;9.768;2023-04-06T14:44:42;3.65;;;2.75;;
38779;SDS011;29273;49.962;9.768;2023-04-06T14:47:09;3.42;;;2.70;;
38779;SDS011;29273;49.962;9.768;2023-04-06T14:49:35;5.20;;;2.90;;
38779;SDS011;29273;49.962;9.768;2023-04-06T14:52:01;3.55;;;2.58;;
38779;SDS011;29273;49.962;9.768;2023-04-06T14:54:26;3.03;;;2.63;;
38779;SDS011;29273;49.962;9.768;2023-04-06T14:56:52;2.33;;;2.13;;